Shawinigan-Sud, Canada
Current Conditions -  °F | °C
As of 3:19 AM on Saturday 25 Oct 2014 (Local Time) from CYRQ Reporting Station
Haze Haze  
Wind Chill: 34°   Ceiling: 18000
Heat Index: 34°   Visibility: 5mi
Dew Point: 34°   Wind: 3mph
Humidity: 100%   Direction: 320°NW
Pressure: 29.74"   Gusts: NA
Location:  46.53°N, 72.75°W
Report Text: CYRQ 250719Z AUTO 32003KT 5SM BR BKN180 01/01 A2974 RMK SLP073
Loading
Personal Weather Stations






























Interactive Weather Map
Tropical Storm Tracking
New forecast layout! Learn more

10-Day Weather Forecast

Advertisements
Track Severe Weather on mobile